createdAt,value
2023-06-18T00:00:03.089Z,8.20
2023-06-18T00:02:48.462Z,7.70
2023-06-18T00:05:19.049Z,7.30
2023-06-18T00:08:08.587Z,7.70
2023-06-18T00:11:17.567Z,7.50
2023-06-18T00:13:45.340Z,7.00
2023-06-18T00:16:29.668Z,6.60
2023-06-18T00:19:04.460Z,7.10
2023-06-18T00:22:04.439Z,6.80
2023-06-18T00:24:59.485Z,6.80
2023-06-18T00:27:49.655Z,6.90
2023-06-18T00:30:19.960Z,6.80
2023-06-18T00:33:01.465Z,7.00
2023-06-18T00:35:28.917Z,6.20
2023-06-18T00:38:17.294Z,6.00
2023-06-18T00:40:52.583Z,6.50
2023-06-18T00:43:45.473Z,6.30
2023-06-18T00:46:19.819Z,5.50
2023-06-18T00:49:22.189Z,6.00
2023-06-18T00:52:24.542Z,6.20
2023-06-18T00:55:35.176Z,6.20
2023-06-18T00:58:35.434Z,5.60
2023-06-18T01:01:36.805Z,5.90
2023-06-18T01:04:31.927Z,7.10
2023-06-18T01:07:01.836Z,6.60
2023-06-18T01:09:45.540Z,6.50
2023-06-18T01:12:55.006Z,6.50
2023-06-18T01:15:42.039Z,6.40
2023-06-18T01:18:43.575Z,7.10
2023-06-18T01:21:40.735Z,6.20
2023-06-18T01:24:43.985Z,6.90
2023-06-18T01:27:44.316Z,6.30
2023-06-18T01:30:13.673Z,5.60
2023-06-18T01:33:12.974Z,6.00
2023-06-18T01:35:55.281Z,6.30
2023-06-18T01:38:43.770Z,6.00
2023-06-18T01:41:36.899Z,5.40
2023-06-18T01:44:09.453Z,5.60
2023-06-18T01:46:39.944Z,5.90
2023-06-18T01:49:17.950Z,5.30
2023-06-18T01:52:25.893Z,6.00
2023-06-18T01:55:20.254Z,5.40
2023-06-18T01:58:13.610Z,5.20
2023-06-18T02:01:31.829Z,5.40
2023-06-18T02:04:03.541Z,5.10
2023-06-18T02:06:48.260Z,5.50
2023-06-18T02:09:52.720Z,5.50
2023-06-18T02:12:37.815Z,5.10
2023-06-18T02:15:25.384Z,5.10
2023-06-18T02:17:57.152Z,5.20
2023-06-18T02:21:14.358Z,5.10
2023-06-18T02:23:41.683Z,5.30
2023-06-18T02:26:11.425Z,5.50
2023-06-18T02:28:51.903Z,5.70
2023-06-18T02:31:32.689Z,5.80
2023-06-18T02:34:12.145Z,5.40
2023-06-18T02:37:39.723Z,6.10
2023-06-18T02:40:15.220Z,5.50
2023-06-18T02:43:09.256Z,5.90
2023-06-18T02:46:09.488Z,5.50
2023-06-18T02:48:39.878Z,5.20
2023-06-18T02:51:58.390Z,5.40
2023-06-18T02:55:10.931Z,5.20
2023-06-18T02:57:44.823Z,5.30
2023-06-18T03:00:15.916Z,5.20
2023-06-18T03:02:57.364Z,4.90
2023-06-18T03:05:42.013Z,5.00
2023-06-18T03:39:47.822Z,6.00
2023-06-18T03:42:39.917Z,5.20
2023-06-18T03:46:01.295Z,5.70
2023-06-18T03:48:37.874Z,5.60
2023-06-18T03:51:33.835Z,5.10
2023-06-18T03:54:26.055Z,5.00
2023-06-18T03:57:14.941Z,5.90
2023-06-18T03:59:53.015Z,5.10
2023-06-18T04:02:56.212Z,4.90
2023-06-18T04:05:55.467Z,5.00
2023-06-18T04:08:53.245Z,5.00
2023-06-18T04:11:53.821Z,5.70
2023-06-18T04:14:51.172Z,4.80
2023-06-18T04:18:00.295Z,4.90
2023-06-18T04:21:00.910Z,5.10
2023-06-18T04:24:12.405Z,5.10
2023-06-18T04:27:25.515Z,5.10
2023-06-18T04:30:13.988Z,4.70
2023-06-18T04:32:45.727Z,4.40
2023-06-18T04:36:23.268Z,4.30
2023-06-18T04:39:52.545Z,3.90
2023-06-18T04:43:04.342Z,3.90
2023-06-18T04:46:06.800Z,3.90
2023-06-18T04:49:10.259Z,3.50
2023-06-18T04:51:56.449Z,3.60
2023-06-18T04:55:09.238Z,3.80
2023-06-18T04:58:11.407Z,3.70
2023-06-18T05:01:51.173Z,3.40
2023-06-18T05:05:08.947Z,4.00
2023-06-18T05:08:06.655Z,3.80
2023-06-18T05:10:53.321Z,3.90
2023-06-18T05:13:54.664Z,3.50
2023-06-18T05:16:43.765Z,4.00
2023-06-18T05:19:21.473Z,3.90
2023-06-18T05:22:04.856Z,3.80
2023-06-18T05:25:39.966Z,4.10
2023-06-18T05:29:49.641Z,3.90
2023-06-18T05:33:59.382Z,4.00
2023-06-18T05:38:08.843Z,4.20
2023-06-18T05:42:18.439Z,3.90
2023-06-18T05:46:22.583Z,3.80
2023-06-18T05:50:32.094Z,3.80
2023-06-18T05:54:41.630Z,3.70
2023-06-18T05:58:51.201Z,3.70
2023-06-18T06:02:53.579Z,3.10
2023-06-18T06:06:08.521Z,3.70
2023-06-18T06:10:18.090Z,3.70
2023-06-18T06:14:27.621Z,3.50
2023-06-18T06:18:37.321Z,3.50
2023-06-18T06:22:46.927Z,3.50
2023-06-18T06:26:56.501Z,3.50
2023-06-18T06:30:55.602Z,3.80
2023-06-18T06:34:45.356Z,3.50
2023-06-18T06:38:51.528Z,3.50
2023-06-18T06:43:01.078Z,3.70
2023-06-18T06:47:06.392Z,3.70
2023-06-18T06:51:27.889Z,3.50
2023-06-18T06:55:37.448Z,3.50
2023-06-18T06:59:18.467Z,3.50
2023-06-18T07:03:18.291Z,3.90
2023-06-18T07:06:54.143Z,3.80
2023-06-18T07:11:04.054Z,3.90
2023-06-18T07:15:13.319Z,4.10
2023-06-18T07:19:22.987Z,3.80
2023-06-18T07:23:32.601Z,3.90
2023-06-18T07:27:02.011Z,3.80
2023-06-18T07:31:00.306Z,4.30
2023-06-18T07:34:30.809Z,3.90
2023-06-18T07:38:20.179Z,4.20
2023-06-18T07:41:29.172Z,4.40
2023-06-18T07:44:50.820Z,4.50
2023-06-18T07:48:19.939Z,4.60
2023-06-18T07:50:54.133Z,4.40
2023-06-18T07:54:42.957Z,4.00
2023-06-18T07:58:52.609Z,4.80
2023-06-18T08:02:54.737Z,4.00
2023-06-18T08:06:29.875Z,4.50
2023-06-18T08:10:39.500Z,4.40
2023-06-18T08:13:21.258Z,5.20
2023-06-18T08:16:17.266Z,5.00
2023-06-18T08:19:12.906Z,4.30
2023-06-18T08:22:44.821Z,4.30
2023-06-18T08:25:25.489Z,4.80
2023-06-18T08:29:28.524Z,4.60
2023-06-18T08:32:40.240Z,4.30
2023-06-18T08:36:19.777Z,4.20
2023-06-18T08:40:05.034Z,4.90
2023-06-18T08:44:04.379Z,4.50
2023-06-18T08:48:08.787Z,4.40
2023-06-18T08:52:00.272Z,4.80
2023-06-18T08:55:55.391Z,4.90
2023-06-18T08:59:21.505Z,4.80
2023-06-18T09:02:29.581Z,4.90
2023-06-18T09:06:10.935Z,5.00
2023-06-18T09:10:03.363Z,5.00
2023-06-18T09:13:38.999Z,5.00
2023-06-18T09:17:09.243Z,4.70
2023-06-18T09:20:04.039Z,4.90
2023-06-18T09:24:13.563Z,5.30
2023-06-18T09:28:16.123Z,5.00
2023-06-18T09:32:18.336Z,5.10
2023-06-18T09:36:37.935Z,4.80
2023-06-18T09:40:27.409Z,5.70
2023-06-18T09:44:20.475Z,5.30
2023-06-18T09:48:30.331Z,5.60
2023-06-18T09:52:19.920Z,5.90
2023-06-18T09:56:29.418Z,6.50
2023-06-18T10:00:50.060Z,5.70
2023-06-18T10:04:58.447Z,5.90
2023-06-18T10:08:48.180Z,5.80
2023-06-18T10:12:57.773Z,6.30
2023-06-18T10:16:57.745Z,5.80
2023-06-18T10:21:07.196Z,5.60
2023-06-18T10:25:16.869Z,5.40
2023-06-18T10:29:26.480Z,5.20
2023-06-18T10:33:36.043Z,5.80
2023-06-18T10:37:48.662Z,5.40
2023-06-18T10:42:07.096Z,5.70
2023-06-18T10:45:51.074Z,5.10
2023-06-18T10:54:01.978Z,5.90
2023-06-18T10:57:54.169Z,5.30
2023-06-18T11:01:57.402Z,5.20
2023-06-18T11:05:19.307Z,5.20
2023-06-18T11:08:20.838Z,5.30
2023-06-18T11:12:31.309Z,5.10
2023-06-18T11:28:07.274Z,5.20
2023-06-18T11:32:16.848Z,5.40
2023-06-18T11:36:26.392Z,4.50
2023-06-18T11:39:35.665Z,5.00
2023-06-18T11:42:52.331Z,5.30
2023-06-18T11:47:10.582Z,4.90
2023-06-18T11:51:10.123Z,5.10
2023-06-18T11:54:57.495Z,5.60
2023-06-18T11:58:26.671Z,5.90
2023-06-18T12:02:34.730Z,5.60
2023-06-18T12:06:44.312Z,5.90
2023-06-18T12:10:55.926Z,5.10
2023-06-18T12:15:15.637Z,5.40
2023-06-18T12:19:25.095Z,5.20
2023-06-18T12:23:25.715Z,5.00
2023-06-18T12:27:00.738Z,4.70
2023-06-18T12:31:10.399Z,5.70
2023-06-18T12:35:17.217Z,5.30
2023-06-18T12:39:16.043Z,5.80
2023-06-18T12:42:41.941Z,5.50
2023-06-18T12:46:07.320Z,6.50
2023-06-18T12:49:41.860Z,5.50
2023-06-18T12:52:40.128Z,5.60
2023-06-18T12:55:27.645Z,5.60
2023-06-18T12:58:47.285Z,5.40
2023-06-18T13:02:39.670Z,5.40
2023-06-18T13:06:32.009Z,5.10
2023-06-18T13:10:15.081Z,5.50
2023-06-18T13:13:44.425Z,5.10
2023-06-18T13:17:12.842Z,5.60
2023-06-18T13:21:22.486Z,5.60
2023-06-18T13:25:32.071Z,5.40
2023-06-18T13:29:30.917Z,5.10
2023-06-18T13:33:40.928Z,5.20
2023-06-18T13:37:43.489Z,5.30
2023-06-18T13:41:45.454Z,5.70
2023-06-18T13:45:55.059Z,5.70
2023-06-18T13:50:04.704Z,5.10
2023-06-18T13:54:09.312Z,4.50
2023-06-18T13:58:01.472Z,5.30
2023-06-18T14:00:49.547Z,5.60
2023-06-18T14:04:41.839Z,4.80
2023-06-18T14:08:51.722Z,4.70
2023-06-18T14:12:55.073Z,5.00
2023-06-18T14:17:04.707Z,5.00
2023-06-18T14:21:14.339Z,5.20
2023-06-18T14:25:03.757Z,5.10
2023-06-18T14:29:13.623Z,4.80
2023-06-18T14:33:23.274Z,5.40
2023-06-18T14:37:32.865Z,4.60
2023-06-18T14:41:42.787Z,4.50
2023-06-18T14:45:52.510Z,4.30
2023-06-18T14:50:00.875Z,4.40
2023-06-18T14:54:10.477Z,4.90
2023-06-18T14:58:18.580Z,4.90
2023-06-18T15:01:47.958Z,5.10
2023-06-18T15:05:57.806Z,4.70
2023-06-18T15:09:27.063Z,4.90
2023-06-18T15:13:29.765Z,5.30
2023-06-18T15:17:39.317Z,5.40
2023-06-18T15:21:49.045Z,5.00
2023-06-18T15:25:58.705Z,4.80
2023-06-18T15:30:08.277Z,5.00
2023-06-18T15:33:57.841Z,4.40
2023-06-18T15:38:07.584Z,4.70
2023-06-18T15:42:19.813Z,4.20
2023-06-18T15:46:19.000Z,4.90
2023-06-18T15:50:08.412Z,5.10
2023-06-18T15:53:23.346Z,5.00
2023-06-18T15:56:52.675Z,5.20
2023-06-18T16:00:14.442Z,4.80
2023-06-18T16:03:35.509Z,5.10
2023-06-18T16:07:24.940Z,4.60
2023-06-18T16:11:17.100Z,5.10
2023-06-18T16:15:26.737Z,5.20
2023-06-18T16:19:36.696Z,4.90
2023-06-18T16:23:45.447Z,5.30
2023-06-18T16:27:17.780Z,5.20
2023-06-18T16:31:20.052Z,5.20
2023-06-18T16:35:29.610Z,5.50
2023-06-18T16:39:20.257Z,4.80
2023-06-18T16:42:50.801Z,4.90
2023-06-18T16:46:53.198Z,5.20
2023-06-18T16:50:44.517Z,4.70
2023-06-18T16:53:48.747Z,4.80
2023-06-18T16:57:00.964Z,4.80
2023-06-18T16:59:58.897Z,5.40
2023-06-18T17:02:33.116Z,5.00
2023-06-18T17:05:50.540Z,4.60
2023-06-18T17:08:42.731Z,4.90
2023-06-18T17:12:37.133Z,5.30
2023-06-18T17:16:40.625Z,4.90
2023-06-18T17:20:32.559Z,4.60
2023-06-18T17:24:04.456Z,5.80
2023-06-18T17:27:57.861Z,5.10
2023-06-18T17:32:07.515Z,5.20
2023-06-18T17:36:17.240Z,5.50
2023-06-18T17:40:25.723Z,4.90
2023-06-18T17:43:24.370Z,5.30
2023-06-18T17:46:47.865Z,5.50
2023-06-18T17:50:57.387Z,4.90
2023-06-18T17:54:32.608Z,5.00
2023-06-18T17:58:25.475Z,4.90
2023-06-18T18:02:24.072Z,5.00
2023-06-18T18:05:52.799Z,5.00
2023-06-18T18:09:37.341Z,5.00
2023-06-18T18:13:27.726Z,5.20
2023-06-18T18:17:02.925Z,5.10
2023-06-18T18:20:45.223Z,5.00
2023-06-18T18:24:52.127Z,5.20
2023-06-18T18:28:43.988Z,5.10
2023-06-18T18:32:53.610Z,5.40
2023-06-18T18:36:43.047Z,5.50
2023-06-18T18:40:33.356Z,5.30
2023-06-18T18:43:50.436Z,5.10
2023-06-18T18:47:40.514Z,4.90
2023-06-18T18:51:05.738Z,6.00
2023-06-18T18:54:48.106Z,5.00
2023-06-18T18:58:00.751Z,5.30
2023-06-18T19:01:44.222Z,5.30
2023-06-18T19:05:24.806Z,5.00
2023-06-18T19:08:39.682Z,5.50
2023-06-18T19:12:39.532Z,5.20
2023-06-18T19:16:30.059Z,5.60
2023-06-18T19:19:27.205Z,5.00
2023-06-18T19:23:02.262Z,5.30
2023-06-18T19:27:00.976Z,5.50
2023-06-18T19:30:30.435Z,5.50
2023-06-18T19:34:30.557Z,5.70
2023-06-18T19:38:24.005Z,5.70
2023-06-18T19:42:33.592Z,5.70
2023-06-18T19:46:26.023Z,6.20
2023-06-18T19:50:15.192Z,5.50
2023-06-18T19:54:24.731Z,6.40
2023-06-18T19:58:34.272Z,5.30
2023-06-18T20:02:43.759Z,5.70
2023-06-18T20:06:53.781Z,5.40
2023-06-18T20:10:19.272Z,5.20
2023-06-18T20:14:28.849Z,5.60
2023-06-18T20:45:16.436Z,6.30
2023-06-18T21:14:23.035Z,5.80
2023-06-18T21:18:32.691Z,6.60
2023-06-18T21:22:42.297Z,6.70
2023-06-18T21:26:50.929Z,6.20
2023-06-18T21:31:00.508Z,6.90
2023-06-18T21:34:59.932Z,6.60
2023-06-18T21:39:09.546Z,6.60
2023-06-18T21:43:17.896Z,6.60
2023-06-18T21:47:27.525Z,6.00
2023-06-18T21:51:27.983Z,6.70
2023-06-18T21:55:37.585Z,6.50
2023-06-18T21:59:47.319Z,6.70
2023-06-18T22:03:57.030Z,6.10
2023-06-18T22:08:23.048Z,6.10
2023-06-18T22:12:33.628Z,6.40
2023-06-18T22:16:43.921Z,6.30
2023-06-18T22:20:53.489Z,6.20
2023-06-18T22:25:03.856Z,6.50
2023-06-18T22:29:05.124Z,5.50
2023-06-18T22:32:59.684Z,6.10
2023-06-18T22:37:09.328Z,6.00
2023-06-18T22:41:08.803Z,7.00
2023-06-18T22:52:26.924Z,6.80
2023-06-18T22:56:36.523Z,6.80
2023-06-18T23:00:26.211Z,6.30
2023-06-18T23:04:40.981Z,6.70
2023-06-18T23:08:43.063Z,6.70
2023-06-18T23:12:52.711Z,6.70
2023-06-18T23:17:02.695Z,6.20
2023-06-18T23:21:14.164Z,6.00
2023-06-18T23:25:15.926Z,6.40
2023-06-18T23:29:25.488Z,6.60
2023-06-18T23:33:27.465Z,6.40
2023-06-18T23:37:36.985Z,6.30
2023-06-18T23:41:45.330Z,6.50
2023-06-18T23:45:54.981Z,6.80
2023-06-18T23:49:57.359Z,6.50
2023-06-18T23:54:08.002Z,6.80
2023-06-18T23:58:17.581Z,6.60
